createdAt,value
2023-04-06T00:01:58.810Z,21.25
2023-04-06T00:04:29.260Z,21.98
2023-04-06T00:06:59.679Z,18.13
2023-04-06T00:09:32.702Z,20.67
2023-04-06T00:12:03.081Z,17.75
2023-04-06T00:14:33.451Z,19.00
2023-04-06T00:17:04.392Z,19.85
2023-04-06T00:19:34.764Z,21.92
2023-04-06T00:22:05.774Z,17.83
2023-04-06T00:24:38.856Z,21.05
2023-04-06T00:27:09.264Z,23.50
2023-04-06T00:29:39.945Z,19.02
2023-04-06T00:32:10.411Z,19.25
2023-04-06T00:34:40.810Z,17.38
2023-04-06T00:37:11.380Z,22.48
2023-04-06T00:39:44.324Z,19.00
2023-04-06T00:42:16.733Z,16.98
2023-04-06T00:44:47.307Z,17.13
2023-04-06T00:47:17.952Z,18.00
2023-04-06T00:49:48.276Z,17.23
2023-04-06T00:52:18.796Z,18.50
2023-04-06T00:54:51.886Z,18.30
2023-04-06T00:57:22.375Z,16.88
2023-04-06T00:59:52.710Z,17.40
2023-04-06T01:02:23.099Z,18.77
2023-04-06T01:04:53.463Z,17.80
2023-04-06T01:07:23.881Z,18.45
2023-04-06T01:09:57.574Z,18.38
2023-04-06T01:12:28.260Z,19.15
2023-04-06T01:14:59.120Z,17.38
2023-04-06T01:17:29.940Z,16.70
2023-04-06T01:20:00.321Z,16.70
2023-04-06T01:22:33.329Z,17.13
2023-04-06T01:25:03.927Z,14.73
2023-04-06T01:27:34.336Z,17.33
2023-04-06T01:30:04.729Z,17.75
2023-04-06T01:32:35.183Z,17.27
2023-04-06T01:35:05.983Z,18.00
2023-04-06T01:37:39.091Z,20.55
2023-04-06T01:40:10.479Z,16.55
2023-04-06T01:42:40.861Z,18.85
2023-04-06T01:45:11.844Z,17.58
2023-04-06T01:47:42.587Z,16.63
2023-04-06T01:50:13.504Z,18.27
2023-04-06T01:52:46.518Z,17.33
2023-04-06T01:55:16.901Z,16.80
2023-04-06T01:57:47.260Z,15.55
2023-04-06T02:00:18.424Z,15.43
2023-04-06T02:02:48.823Z,18.67
2023-04-06T02:05:19.236Z,15.30
2023-04-06T02:07:53.073Z,17.60
2023-04-06T02:10:23.426Z,16.02
2023-04-06T02:12:53.786Z,14.15
2023-04-06T02:15:24.154Z,15.65
2023-04-06T02:17:54.577Z,16.30
2023-04-06T02:20:24.991Z,16.88
2023-04-06T02:22:58.020Z,14.00
2023-04-06T02:25:28.369Z,20.08
2023-04-06T02:27:58.860Z,15.68
2023-04-06T02:30:30.231Z,15.85
2023-04-06T02:33:00.666Z,13.95
2023-04-06T02:35:32.689Z,14.73
2023-04-06T02:38:06.019Z,14.75
2023-04-06T02:40:36.405Z,13.68
2023-04-06T02:43:06.896Z,16.15
2023-04-06T02:45:37.214Z,15.13
2023-04-06T02:48:08.173Z,15.82
2023-04-06T02:50:38.604Z,13.82
2023-04-06T02:53:11.607Z,14.60
2023-04-06T02:55:41.975Z,16.77
2023-04-06T02:58:12.606Z,15.50
2023-04-06T03:00:42.992Z,16.20
2023-04-06T03:03:13.459Z,16.58
2023-04-06T03:05:43.889Z,17.05
2023-04-06T03:08:17.232Z,16.63
2023-04-06T03:10:49.756Z,14.65
2023-04-06T03:13:20.185Z,15.13
2023-04-06T03:15:50.611Z,16.77
2023-04-06T03:18:22.700Z,14.50
2023-04-06T03:20:55.091Z,16.45
2023-04-06T03:23:28.156Z,18.42
2023-04-06T03:25:58.488Z,17.10
2023-04-06T03:28:28.931Z,14.45
2023-04-06T03:30:59.356Z,16.88
2023-04-06T03:33:31.101Z,15.32
2023-04-06T03:36:01.630Z,15.43
2023-04-06T03:38:34.630Z,16.25
2023-04-06T03:41:04.986Z,16.60
2023-04-06T03:43:35.650Z,15.63
2023-04-06T03:46:06.036Z,19.38
2023-04-06T03:48:36.453Z,17.63
2023-04-06T03:51:06.813Z,18.02
2023-04-06T03:53:40.654Z,12.63
2023-04-06T03:56:11.344Z,17.42
2023-04-06T03:58:41.734Z,15.07
2023-04-06T04:01:12.087Z,13.95
2023-04-06T04:03:45.391Z,15.15
2023-04-06T04:06:15.847Z,16.58
2023-04-06T04:08:48.825Z,14.07
2023-04-06T04:11:19.493Z,14.57
2023-04-06T04:13:49.867Z,14.02
2023-04-06T04:16:20.227Z,14.32
2023-04-06T04:18:51.035Z,15.73
2023-04-06T04:21:21.365Z,13.68
2023-04-06T04:23:54.615Z,17.10
2023-04-06T04:26:24.994Z,18.83
2023-04-06T04:28:55.588Z,16.55
2023-04-06T04:31:26.196Z,15.70
2023-04-06T04:33:56.636Z,14.90
2023-04-06T04:36:27.601Z,13.05
2023-04-06T04:39:02.421Z,17.33
2023-04-06T04:41:32.781Z,13.93
2023-04-06T04:44:03.233Z,14.18
2023-04-06T04:46:33.534Z,17.27
2023-04-06T04:49:03.936Z,14.90
2023-04-06T04:51:34.996Z,17.67
2023-04-06T04:54:08.264Z,15.90
2023-04-06T04:56:38.658Z,17.75
2023-04-06T04:59:09.508Z,19.15
2023-04-06T05:01:53.700Z,20.45
2023-04-06T05:04:25.040Z,20.50
2023-04-06T05:06:55.537Z,18.88
2023-04-06T05:09:28.963Z,18.67
2023-04-06T05:11:59.342Z,18.00
2023-04-06T05:14:29.810Z,19.48
2023-04-06T05:17:00.193Z,17.70
2023-04-06T05:19:30.556Z,19.67
2023-04-06T05:22:00.928Z,17.35
2023-04-06T05:24:34.052Z,22.90
2023-04-06T05:27:04.376Z,20.13
2023-04-06T05:29:35.003Z,13.95
2023-04-06T05:32:05.684Z,17.55
2023-04-06T05:34:36.438Z,21.05
2023-04-06T05:37:06.782Z,19.33
2023-04-06T05:39:39.773Z,18.88
2023-04-06T05:42:10.387Z,17.95
2023-04-06T05:44:42.056Z,21.25
2023-04-06T05:47:12.356Z,21.45
2023-04-06T05:49:42.814Z,19.80
2023-04-06T05:52:13.390Z,22.58
2023-04-06T05:54:46.350Z,23.08
2023-04-06T05:57:17.654Z,20.55
2023-04-06T05:59:48.051Z,24.65
2023-04-06T06:02:18.463Z,19.58
2023-04-06T06:04:48.945Z,23.08
2023-04-06T06:07:19.567Z,19.48
2023-04-06T06:09:52.544Z,20.25
2023-04-06T06:12:22.853Z,20.58
2023-04-06T06:14:53.204Z,17.67
2023-04-06T06:17:23.650Z,17.58
2023-04-06T06:19:54.135Z,18.25
2023-04-06T06:22:24.498Z,19.83
2023-04-06T06:24:57.574Z,21.52
2023-04-06T06:27:27.975Z,20.40
2023-04-06T06:29:58.366Z,16.42
2023-04-06T06:32:28.766Z,22.40
2023-04-06T06:34:59.180Z,21.17
2023-04-06T06:37:31.110Z,24.63
2023-04-06T06:40:04.358Z,23.77
2023-04-06T06:42:34.737Z,26.50
2023-04-06T06:45:05.163Z,21.50
2023-04-06T06:47:35.623Z,20.95
2023-04-06T06:50:06.258Z,13.13
2023-04-06T06:52:36.647Z,19.52
2023-04-06T06:55:10.157Z,21.45
2023-04-06T06:57:40.520Z,20.65
2023-04-06T07:00:13.559Z,20.83
2023-04-06T07:02:44.149Z,19.05
2023-04-06T07:05:26.837Z,15.85
2023-04-06T07:07:58.296Z,17.92
2023-04-06T07:10:31.593Z,15.73
2023-04-06T07:13:02.094Z,22.63
2023-04-06T07:15:32.540Z,14.23
2023-04-06T07:18:02.946Z,15.43
2023-04-06T07:20:33.439Z,19.50
2023-04-06T07:23:03.940Z,17.10
2023-04-06T07:25:37.067Z,16.98
2023-04-06T07:28:07.612Z,17.88
2023-04-06T07:30:38.054Z,20.58
2023-04-06T07:33:08.472Z,16.13
2023-04-06T07:35:39.186Z,20.20
2023-04-06T07:38:09.685Z,17.38
2023-04-06T07:40:42.895Z,17.15
2023-04-06T07:43:13.317Z,14.95
2023-04-06T07:45:43.876Z,11.73
2023-04-06T07:48:14.304Z,13.13
2023-04-06T07:50:44.793Z,10.90
2023-04-06T07:53:15.164Z,12.95
2023-04-06T07:55:51.480Z,12.52
2023-04-06T07:58:21.998Z,10.20
2023-04-06T08:00:53.052Z,11.70
2023-04-06T08:03:26.863Z,7.80
2023-04-06T08:05:57.533Z,14.75
2023-04-06T08:08:27.890Z,11.35
2023-04-06T08:11:02.306Z,10.90
2023-04-06T08:13:32.841Z,8.38
2023-04-06T08:16:04.114Z,8.45
2023-04-06T08:21:04.568Z,12.38
2023-04-06T08:23:35.315Z,10.07
2023-04-06T08:26:08.386Z,11.90
2023-04-06T08:28:38.721Z,12.05
2023-04-06T08:31:09.681Z,8.95
2023-04-06T08:33:40.487Z,8.88
2023-04-06T08:36:14.378Z,11.60
2023-04-06T08:38:45.232Z,9.23
2023-04-06T08:41:18.958Z,8.20
2023-04-06T08:43:51.806Z,10.73
2023-04-06T08:46:22.835Z,8.30
2023-04-06T08:48:54.599Z,9.98
2023-04-06T08:51:26.547Z,11.15
2023-04-06T08:53:58.430Z,10.00
2023-04-06T08:56:32.791Z,10.98
2023-04-06T08:59:03.815Z,9.98
2023-04-06T09:01:34.845Z,9.48
2023-04-06T09:04:08.807Z,8.68
2023-04-06T09:06:41.869Z,8.88
2023-04-06T09:09:14.785Z,8.90
2023-04-06T09:11:52.328Z,10.85
2023-04-06T09:14:37.550Z,10.48
2023-04-06T09:17:08.965Z,7.07
2023-04-06T09:19:49.565Z,11.93
2023-04-06T09:22:20.019Z,7.80
2023-04-06T09:24:51.377Z,6.85
2023-04-06T09:29:54.399Z,9.10
2023-04-06T09:32:24.841Z,8.23
2023-04-06T09:34:55.261Z,9.10
2023-04-06T09:37:25.648Z,9.32
2023-04-06T09:40:06.654Z,8.55
2023-04-06T09:42:37.079Z,7.32
2023-04-06T09:45:10.689Z,7.95
2023-04-06T09:47:41.828Z,5.45
2023-04-06T09:50:13.890Z,6.35
2023-04-06T09:52:46.190Z,6.30
2023-04-06T09:55:17.115Z,5.75
2023-04-06T09:57:50.465Z,6.95
2023-04-06T10:00:26.623Z,6.70
2023-04-06T10:03:01.181Z,7.95
2023-04-06T10:05:36.584Z,7.18
2023-04-06T10:08:10.815Z,7.05
2023-04-06T10:10:41.774Z,7.20
2023-04-06T10:13:12.534Z,8.68
2023-04-06T10:15:46.593Z,9.23
2023-04-06T10:18:17.319Z,11.35
2023-04-06T10:20:51.820Z,7.30
2023-04-06T10:23:25.332Z,9.40
2023-04-06T10:25:58.665Z,9.45
2023-04-06T10:28:29.545Z,7.78
2023-04-06T10:31:06.668Z,8.77
2023-04-06T10:33:37.246Z,12.27
2023-04-06T10:36:17.446Z,8.27
2023-04-06T10:38:47.869Z,7.75
2023-04-06T10:41:21.932Z,8.25
2023-04-06T10:43:59.515Z,9.57
2023-04-06T10:46:33.450Z,8.20
2023-04-06T10:49:14.998Z,11.35
2023-04-06T10:51:45.459Z,14.35
2023-04-06T10:54:16.598Z,12.93
2023-04-06T10:56:46.939Z,13.15
2023-04-06T10:59:17.357Z,10.73
2023-04-06T11:01:51.823Z,8.13
2023-04-06T11:04:22.963Z,8.85
2023-04-06T11:06:55.134Z,5.07
2023-04-06T11:09:29.911Z,10.32
2023-04-06T11:12:00.427Z,12.93
2023-04-06T11:14:30.974Z,9.75
2023-04-06T11:17:03.978Z,8.55
2023-04-06T11:19:36.479Z,12.07
2023-04-06T11:22:11.995Z,12.85
2023-04-06T11:24:42.356Z,11.00
2023-04-06T11:27:12.776Z,11.88
2023-04-06T11:29:43.216Z,14.48
2023-04-06T11:32:16.472Z,11.90
2023-04-06T11:34:46.865Z,11.52
2023-04-06T11:37:17.226Z,9.68
2023-04-06T11:39:51.848Z,15.18
2023-04-06T11:42:29.299Z,10.93
2023-04-06T11:45:00.225Z,15.13
2023-04-06T11:47:37.817Z,16.65
2023-04-06T11:50:12.189Z,14.40
2023-04-06T11:52:43.138Z,11.60
2023-04-06T11:55:17.577Z,11.07
2023-04-06T11:57:48.280Z,14.48
2023-04-06T12:00:19.340Z,12.35
2023-04-06T12:02:53.309Z,15.43
2023-04-06T12:05:24.358Z,12.73
2023-04-06T12:07:54.718Z,16.17
2023-04-06T12:10:25.155Z,11.23
2023-04-06T12:12:55.488Z,14.80
2023-04-06T12:15:26.251Z,14.20
2023-04-06T12:17:59.565Z,11.85
2023-04-06T12:20:29.948Z,15.23
2023-04-06T12:23:00.342Z,12.75
2023-04-06T12:25:31.235Z,17.08
2023-04-06T12:28:02.949Z,16.33
2023-04-06T12:30:33.416Z,14.98
2023-04-06T12:33:06.411Z,13.30
2023-04-06T12:35:38.689Z,13.13
2023-04-06T12:38:09.017Z,14.30
2023-04-06T12:40:42.259Z,15.23
2023-04-06T12:43:14.232Z,12.20
2023-04-06T12:45:44.678Z,14.25
2023-04-06T12:48:17.627Z,16.10
2023-04-06T12:50:48.012Z,10.90
2023-04-06T12:53:18.369Z,12.07
2023-04-06T12:55:48.860Z,13.70
2023-04-06T12:58:19.233Z,13.85
2023-04-06T13:00:49.804Z,12.50
2023-04-06T13:03:23.605Z,14.52
2023-04-06T13:05:54.810Z,15.45
2023-04-06T13:08:25.142Z,12.85
2023-04-06T13:10:56.441Z,5.97
2023-04-06T13:15:57.909Z,9.50
2023-04-06T13:18:30.901Z,6.13
2023-04-06T13:21:01.486Z,13.65
2023-04-06T13:23:31.855Z,11.80
2023-04-06T13:26:04.436Z,9.35
2023-04-06T13:28:35.391Z,10.48
2023-04-06T13:31:06.524Z,14.93
2023-04-06T13:33:39.702Z,12.52
2023-04-06T13:36:11.122Z,11.05
2023-04-06T13:38:42.567Z,6.90
2023-04-06T13:41:13.185Z,9.65
2023-04-06T13:43:43.539Z,6.60
2023-04-06T13:46:13.979Z,12.13
2023-04-06T13:48:48.189Z,9.20
2023-04-06T13:51:18.968Z,9.70
2023-04-06T13:53:51.474Z,13.32
2023-04-06T13:56:21.848Z,10.10
2023-04-06T13:58:52.221Z,10.85
2023-04-06T14:01:22.707Z,11.20
2023-04-06T14:03:55.868Z,16.38
2023-04-06T14:06:31.792Z,12.20
2023-04-06T14:09:02.672Z,12.02
2023-04-06T14:11:33.536Z,10.43
2023-04-06T14:14:04.165Z,13.02
2023-04-06T14:16:34.911Z,14.93
2023-04-06T14:19:07.838Z,15.20
2023-04-06T14:21:38.900Z,13.57
2023-04-06T14:24:09.560Z,10.73
2023-04-06T14:26:40.205Z,14.07
2023-04-06T14:29:10.491Z,9.02
2023-04-06T14:31:41.405Z,14.57
2023-04-06T14:34:14.283Z,12.30
2023-04-06T14:36:44.672Z,14.07
2023-04-06T14:39:15.102Z,11.45
2023-04-06T14:41:46.372Z,8.60
2023-04-06T14:46:47.265Z,13.38
2023-04-06T14:49:20.290Z,14.35
2023-04-06T14:51:50.663Z,18.60
2023-04-06T14:54:21.078Z,19.50
2023-04-06T14:56:54.158Z,10.00
2023-04-06T14:59:24.458Z,22.50
2023-04-06T15:01:54.997Z,14.15
2023-04-06T15:04:28.069Z,8.27
2023-04-06T15:06:58.464Z,11.00
2023-04-06T15:09:28.804Z,18.40
2023-04-06T15:12:01.830Z,16.45
2023-04-06T15:14:32.146Z,14.50
2023-04-06T15:17:02.599Z,17.30
2023-04-06T15:19:35.644Z,14.93
2023-04-06T15:22:06.023Z,11.20
2023-04-06T15:24:36.460Z,16.52
2023-04-06T15:27:06.842Z,15.50
2023-04-06T15:29:37.451Z,16.65
2023-04-06T15:32:07.863Z,10.02
2023-04-06T15:34:41.051Z,13.02
2023-04-06T15:37:12.030Z,17.08
2023-04-06T15:39:42.373Z,13.60
2023-04-06T15:42:12.724Z,15.73
2023-04-06T15:44:43.042Z,13.60
2023-04-06T15:47:13.484Z,18.65
2023-04-06T15:49:46.431Z,16.27
2023-04-06T15:52:16.895Z,18.10
2023-04-06T15:54:47.828Z,13.25
2023-04-06T15:57:18.193Z,22.25
2023-04-06T15:59:48.481Z,19.27
2023-04-06T16:02:20.498Z,20.73
2023-04-06T16:04:53.491Z,10.00
2023-04-06T16:07:24.041Z,15.00
2023-04-06T16:09:54.522Z,15.43
2023-04-06T16:14:55.296Z,18.30
2023-04-06T16:17:26.145Z,24.05
2023-04-06T16:19:59.080Z,25.10
2023-04-06T16:22:29.432Z,22.98
2023-04-06T16:24:59.758Z,23.25
2023-04-06T16:27:30.192Z,21.23
2023-04-06T16:32:52.055Z,23.48
2023-04-06T16:35:26.381Z,19.63
2023-04-06T16:37:56.795Z,23.05
2023-04-06T16:40:27.334Z,18.15
2023-04-06T16:42:58.645Z,22.38
2023-04-06T16:45:28.982Z,21.02
2023-04-06T16:47:59.474Z,21.35
2023-04-06T16:50:32.485Z,24.63
2023-04-06T16:53:02.870Z,24.85
2023-04-06T16:55:33.208Z,26.08
2023-04-06T16:58:03.576Z,23.17
2023-04-06T17:00:33.999Z,23.75
2023-04-06T17:03:04.558Z,24.30
2023-04-06T17:05:38.191Z,23.55
2023-04-06T17:08:08.763Z,17.75
2023-04-06T17:10:46.448Z,19.42
2023-04-06T17:13:22.077Z,21.73
2023-04-06T17:15:52.381Z,18.05
2023-04-06T17:18:22.757Z,21.52
2023-04-06T17:20:55.796Z,22.13
2023-04-06T17:23:26.425Z,24.67
2023-04-06T17:25:57.938Z,25.80
2023-04-06T17:28:28.453Z,28.23
2023-04-06T17:30:58.883Z,28.13
2023-04-06T17:33:29.827Z,19.98
2023-04-06T17:36:02.917Z,27.98
2023-04-06T17:38:33.375Z,26.65
2023-04-06T17:41:07.752Z,26.30
2023-04-06T17:43:38.243Z,24.42
2023-04-06T17:46:09.056Z,20.02
2023-04-06T17:48:39.518Z,18.42
2023-04-06T17:51:12.470Z,21.23
2023-04-06T17:53:42.876Z,13.90
2023-04-06T17:56:13.255Z,21.13
2023-04-06T17:58:44.229Z,20.20
2023-04-06T18:01:14.927Z,22.60
2023-04-06T18:03:45.739Z,26.05
2023-04-06T18:06:19.323Z,20.67
2023-04-06T18:08:49.655Z,27.15
2023-04-06T18:11:21.969Z,30.50
2023-04-06T18:13:53.041Z,20.02
2023-04-06T18:18:54.008Z,19.10
2023-04-06T18:21:27.448Z,19.52
2023-04-06T18:24:00.004Z,18.42
2023-04-06T18:26:32.944Z,19.23
2023-04-06T18:29:03.340Z,20.23
2023-04-06T18:34:05.264Z,14.55
2023-04-06T18:36:38.187Z,17.67
2023-04-06T18:39:08.656Z,15.82
2023-04-06T18:41:39.447Z,19.10
2023-04-06T18:44:09.914Z,19.35
2023-04-06T18:46:40.304Z,16.75
2023-04-06T18:49:10.820Z,17.52
2023-04-06T18:51:43.875Z,18.55
2023-04-06T18:54:14.266Z,13.98
2023-04-06T18:56:44.713Z,19.77
2023-04-06T18:59:17.583Z,18.05
2023-04-06T19:01:51.308Z,16.55
2023-04-06T19:04:21.883Z,19.00
2023-04-06T19:06:55.942Z,18.50
2023-04-06T19:09:26.884Z,18.85
2023-04-06T19:11:57.758Z,20.60
2023-04-06T19:14:28.143Z,17.60
2023-04-06T19:16:58.872Z,19.33
2023-04-06T19:19:29.422Z,18.52
2023-04-06T19:22:02.582Z,22.10
2023-04-06T19:24:32.928Z,22.95
2023-04-06T19:27:03.418Z,20.73
2023-04-06T19:29:33.761Z,24.80
2023-04-06T19:32:04.131Z,25.20
2023-04-06T19:34:34.607Z,19.02
2023-04-06T19:37:07.708Z,19.15
2023-04-06T19:39:40.325Z,20.02
2023-04-06T19:42:10.660Z,19.10
2023-04-06T19:44:41.028Z,22.60
2023-04-06T19:47:12.052Z,17.75
2023-04-06T19:49:42.385Z,25.80
2023-04-06T19:52:15.684Z,20.15
2023-04-06T19:54:47.161Z,22.42
2023-04-06T19:57:17.642Z,23.63
2023-04-06T19:59:47.965Z,25.88
2023-04-06T20:02:19.001Z,22.67
2023-04-06T20:07:23.904Z,22.83
2023-04-06T20:09:54.219Z,23.00
2023-04-06T20:12:24.576Z,21.73
2023-04-06T20:14:55.079Z,21.02
2023-04-06T20:17:25.546Z,15.88
2023-04-06T20:19:55.959Z,18.67
2023-04-06T20:22:30.141Z,22.15
2023-04-06T20:25:00.596Z,20.23
2023-04-06T20:27:31.032Z,18.02
2023-04-06T20:30:01.734Z,20.73
2023-04-06T20:32:33.461Z,20.10
2023-04-06T20:35:04.255Z,20.08
2023-04-06T20:37:38.080Z,19.80
2023-04-06T20:40:09.261Z,20.73
2023-04-06T20:45:10.873Z,18.77
2023-04-06T20:47:41.251Z,20.20
2023-04-06T20:50:12.378Z,20.58
2023-04-06T20:55:15.662Z,21.10
2023-04-06T20:57:46.659Z,22.27
2023-04-06T21:00:17.568Z,18.83
2023-04-06T21:02:48.093Z,20.90
2023-04-06T21:05:20.893Z,19.83
2023-04-06T21:07:51.234Z,16.85
2023-04-06T21:10:24.688Z,15.20
2023-04-06T21:12:54.978Z,11.88
2023-04-06T21:15:26.275Z,18.15
2023-04-06T21:17:56.663Z,17.63
2023-04-06T21:20:27.034Z,18.30
2023-04-06T21:22:57.319Z,20.17
2023-04-06T21:25:30.263Z,19.83
2023-04-06T21:28:01.199Z,22.92
2023-04-06T21:30:36.968Z,21.33
2023-04-06T21:33:07.791Z,23.75
2023-04-06T21:35:41.680Z,14.27
2023-04-06T21:38:12.242Z,19.05
2023-04-06T21:40:45.192Z,15.20
2023-04-06T21:43:15.546Z,13.90
2023-04-06T21:45:52.166Z,15.93
2023-04-06T21:48:22.435Z,15.75
2023-04-06T21:50:52.771Z,15.05
2023-04-06T21:53:23.068Z,12.20
2023-04-06T21:55:56.204Z,14.50
2023-04-06T21:58:26.528Z,15.25
2023-04-06T22:00:56.865Z,14.75
2023-04-06T22:03:27.326Z,18.05
2023-04-06T22:05:58.058Z,19.80
2023-04-06T22:08:33.658Z,19.60
2023-04-06T22:11:11.515Z,20.42
2023-04-06T22:13:42.593Z,15.80
2023-04-06T22:16:12.977Z,20.42
2023-04-06T22:18:43.249Z,19.00
2023-04-06T22:21:13.697Z,21.00
2023-04-06T22:23:44.918Z,17.63
2023-04-06T22:28:47.893Z,19.88
2023-04-06T22:31:18.261Z,20.83
2023-04-06T22:33:48.561Z,20.67
2023-04-06T22:36:18.971Z,21.98
2023-04-06T22:38:51.049Z,24.13
2023-04-06T22:41:21.408Z,23.10
2023-04-06T22:43:54.360Z,29.45
2023-04-06T22:46:24.820Z,20.20
2023-04-06T22:48:55.108Z,21.77
2023-04-06T22:51:25.568Z,22.15
2023-04-06T22:53:55.877Z,21.23
2023-04-06T22:56:26.353Z,18.00
2023-04-06T22:58:59.356Z,22.38
2023-04-06T23:01:29.895Z,21.42
2023-04-06T23:04:00.546Z,17.42
2023-04-06T23:06:31.030Z,17.52
2023-04-06T23:09:01.504Z,19.02
2023-04-06T23:11:32.081Z,15.13
2023-04-06T23:14:05.021Z,16.25
2023-04-06T23:16:35.421Z,18.45
2023-04-06T23:19:05.972Z,20.13
2023-04-06T23:21:36.434Z,16.80
2023-04-06T23:24:06.716Z,23.63
2023-04-06T23:26:37.191Z,21.20
2023-04-06T23:29:10.174Z,19.02
2023-04-06T23:31:40.600Z,16.42
2023-04-06T23:34:10.972Z,16.73
2023-04-06T23:36:41.305Z,22.25
2023-04-06T23:39:11.677Z,14.63
2023-04-06T23:41:43.324Z,20.88
2023-04-06T23:44:16.495Z,16.80
2023-04-06T23:46:46.942Z,17.00
2023-04-06T23:49:17.315Z,17.45
2023-04-06T23:51:47.631Z,18.70
2023-04-06T23:54:18.033Z,19.65
2023-04-06T23:56:48.387Z,19.35
2023-04-06T23:59:23.917Z,17.35
